Aérodrome :
LOGIN :

S'inscrire | Disclaimer

   EN    FR    IT 

 










Légende :    VFR   VFR Marginal   IFR   IFR Intensif   IFR Très Intensif
Visi : 
Plafond : 
>= 8 km
>= 3000ft
5 à 8 km
1000 à 3000 ft
1500m à 5 km
500 à 1000 ft
800 à 1500m
200 à 500 ft
< 800m
< 200 ft
Symboles :   Orages  Brouillard  Fortes neiges  Fortes précipitations  Vent > 20 kt
SIGMETs :   Divers  Orages  Givrage  Turbulence  Onde Orograph.  Cendres Volcan.







- Altitude de l'aérodrome : 0 ft


ETWM - Meppe

DERNIER METAR :
  • 231520Z AUTO 28003KT 9000 // ////// 10/09 Q1012 ///

METARs EXPIRÉS :
  • 231420Z AUTO 28003KT 9999 // ////// 10/08 Q1011 ///
  • 231320Z AUTO 33002KT 8000 // ////// 10/09 Q1011 ///

TAF N/A
Pas de NOTAMs connus pour ce terrain.
1 SIGMET publié pour la FIR Bremen (EDWW) :
 
Turbulence forte
EDWW SIGMET 1 VALID 231511/231610 EDZH
EDWW BREMEN FIR SEV TURB OBS WI N5323 E00955 - N5308 E01054 - N5239 E01040 - N5257 E00935 - N5323 E00955 FL150/190 STNR NC=



MET'MAP, la Météo Aéronautique d'un coup d'oeil ! - Copyright ORBIFLY Décembre 2007 - Disclaimer

ORBIFLY MET'MAP TEAM :

Programmation & Développement : Alexandra Zaïnal
Conception & Développement : Baudouin d'Aumeries
Co-Programmation & Développement : Marc-Olivier Méhu
Soutien technique & logistique : Manuel Goepfert

Contact : metmap@orbifly.com




SOURCES & CREDITS :

   NOAA